Wetterdaten: Woche 07.09.15 - 13.09.15 (KW37)
Datum Zeit Temp. Aussen Temp. o. S. +5cm Feuchte Auss BlattFeu 1 Luftdruck Regen Sonnenschein Regendauer Solar Windben Empfang
07.09.2015 00:00 12,4 C 12,2 C 11,1 C 91 % 0 lf 1025,2 hPa 0,0 l/m 0,00 h 0,00 h 0 W/m 15,5 km/h (3 Bft) 89,43 %
07.09.2015 01:00 12,3 C 12,2 C 11,1 C 93 % 0 lf 1025,1 hPa 0,0 l/m 0,00 h 0,00 h 0 W/m 15,2 km/h (3 Bft) 95,52 %
07.09.2015 02:00 12,2 C 11,9 C 10,7 C 93 % 13 lf 1024,8 hPa 0,0 l/m 0,00 h 0,33 h 0 W/m 15,5 km/h (3 Bft) 97,86 %
07.09.2015 03:00 12,1 C 11,9 C 10,6 C 94 % 15 lf 1024,6 hPa 0,0 l/m 0,00 h 0,07 h 0 W/m 18,4 km/h (3 Bft) 94,94 %
07.09.2015 04:00 11,8 C 11,7 C 10,6 C 95 % 15 lf 1024,3 hPa 0,4 l/m 0,00 h 0,25 h 0 W/m 14,9 km/h (3 Bft) 98,63 %
07.09.2015 05:00 11,7 C 11,7 C 10,6 C 96 % 15 lf 1024,0 hPa 0,0 l/m 0,00 h 0,10 h 0 W/m 15,4 km/h (3 Bft) 93,74 %
07.09.2015 06:00 11,7 C 11,7 C 10,6 C 96 % 15 lf 1023,9 hPa 0,0 l/m 0,00 h 0,03 h 0 W/m 16,9 km/h (3 Bft) 96,29 %
07.09.2015 07:00 11,8 C 11,8 C 10,6 C 97 % 15 lf 1024,0 hPa 0,0 l/m 0,00 h 0,03 h 9 W/m 14,2 km/h (3 Bft) 97,50 %
07.09.2015 08:00 12,2 C 12,2 C 11,1 C 97 % 15 lf 1024,4 hPa 0,0 l/m 0,00 h 0,10 h 38 W/m 12,0 km/h (2 Bft) 96,16 %
07.09.2015 09:00 12,7 C 13,0 C 11,8 C 97 % 15 lf 1024,7 hPa 0,4 l/m 0,00 h 0,23 h 75 W/m 10,6 km/h (2 Bft) 94,23 %
07.09.2015 10:00 13,7 C 15,4 C 13,3 C 98 % 15 lf 1025,0 hPa 0,0 l/m 0,10 h 0,10 h 196 W/m 11,2 km/h (2 Bft) 98,43 %
07.09.2015 11:00 14,9 C 17,8 C 14,4 C 97 % 3 lf 1025,2 hPa 0,0 l/m 0,17 h 0,03 h 249 W/m 13,8 km/h (3 Bft) 95,16 %
07.09.2015 12:00 16,7 C 22,1 C 16,3 C 87 % 0 lf 1025,2 hPa 0,0 l/m 0,52 h 0,00 h 389 W/m 16,4 km/h (3 Bft) 96,38 %
07.09.2015 13:00 17,1 C 18,4 C 15,1 C 81 % 0 lf 1025,3 hPa 0,0 l/m 0,10 h 0,00 h 163 W/m 14,8 km/h (3 Bft) 96,79 %
07.09.2015 14:00 16,7 C 18,0 C 15,8 C 83 % 4 lf 1025,5 hPa 0,0 l/m 0,00 h 0,20 h 175 W/m 10,9 km/h (2 Bft) 96,09 %
07.09.2015 15:00 16,4 C 17,9 C 15,6 C 85 % 5 lf 1025,5 hPa 0,0 l/m 0,10 h 0,03 h 165 W/m 11,3 km/h (2 Bft) 97,15 %
07.09.2015 16:00 17,3 C 19,7 C 17,1 C 81 % 0 lf 1025,3 hPa 0,0 l/m 0,37 h 0,00 h 234 W/m 16,8 km/h (3 Bft) 97,01 %
07.09.2015 17:00 17,4 C 18,9 C 16,4 C 80 % 0 lf 1025,3 hPa 0,0 l/m 0,27 h 0,00 h 187 W/m 16,6 km/h (3 Bft) 95,23 %
07.09.2015 18:00 17,4 C 17,9 C 15,9 C 80 % 0 lf 1025,3 hPa 0,0 l/m 0,18 h 0,00 h 95 W/m 16,7 km/h (3 Bft) 97,61 %
07.09.2015 19:00 16,4 C 16,1 C 14,6 C 83 % 0 lf 1025,4 hPa 0,0 l/m 0,00 h 0,00 h 17 W/m 12,6 km/h (3 Bft) 95,87 %
07.09.2015 20:00 15,7 C 15,4 C 14,0 C 85 % 0 lf 1025,9 hPa 0,0 l/m 0,00 h 0,00 h 6 W/m 11,5 km/h (2 Bft) 95,73 %
07.09.2015 21:00 15,2 C 14,5 C 13,3 C 87 % 0 lf 1026,5 hPa 0,0 l/m 0,00 h 0,00 h 0 W/m 6,0 km/h (2 Bft) 96,44 %
07.09.2015 22:00 14,4 C 13,1 C 12,0 C 88 % 1 lf 1026,6 hPa 0,0 l/m 0,00 h 0,00 h 0 W/m 2,9 km/h (1 Bft) 97,72 %
07.09.2015 23:00 13,7 C 12,9 C 11,9 C 90 % 1 lf 1026,7 hPa 0,0 l/m 0,00 h 0,00 h 0 W/m 5,2 km/h (1 Bft) 94,44 %
08.09.2015 00:00 13,2 C 12,0 C 11,1 C 91 % 1 lf 1026,8 hPa 0,0 l/m 0,00 h 0,00 h 0 W/m 4,9 km/h (1 Bft) 96,25 %
08.09.2015 01:00 12,3 C 11,1 C 10,0 C 91 % 7 lf 1026,7 hPa 0,0 l/m 0,00 h 0,00 h 0 W/m 5,0 km/h (1 Bft) 97,58 %
08.09.2015 02:00 11,4 C 9,9 C 9,3 C 92 % 15 lf 1026,6 hPa 0,0 l/m 0,00 h 0,00 h 0 W/m 2,8 km/h (1 Bft) 95,09 %
08.09.2015 03:00 10,6 C 9,9 C 9,3 C 92 % 15 lf 1026,4 hPa 0,0 l/m 0,00 h 0,00 h 0 W/m 2,2 km/h (1 Bft) 97,87 %
08.09.2015 04:00 10,8 C 11,1 C 10,0 C 94 % 15 lf 1026,2 hPa 0,0 l/m 0,00 h 0,00 h 0 W/m 1,7 km/h (1 Bft) 95,87 %
08.09.2015 05:00 11,2 C 11,1 C 10,4 C 95 % 15 lf 1026,0 hPa 0,0 l/m 0,00 h 0,00 h 0 W/m 1,7 km/h (1 Bft) 95,80 %
08.09.2015 06:00 11,5 C 11,6 C 10,9 C 96 % 15 lf 1025,7 hPa 0,0 l/m 0,00 h 0,00 h 0 W/m 2,7 km/h (1 Bft) 97,50 %
08.09.2015 07:00 12,0 C 12,1 C 11,2 C 96 % 15 lf 1025,7 hPa 1,2 l/m 0,00 h 0,87 h 13 W/m 3,9 km/h (1 Bft) 96,16 %
08.09.2015 08:00 12,6 C 12,8 C 11,7 C 97 % 15 lf 1025,7 hPa 0,0 l/m 0,00 h 0,13 h 49 W/m 8,5 km/h (2 Bft) 94,30 %
08.09.2015 09:00 13,1 C 13,6 C 12,3 C 97 % 15 lf 1025,8 hPa 0,0 l/m 0,00 h 0,00 h 87 W/m 10,6 km/h (2 Bft) 98,57 %
08.09.2015 10:00 13,7 C 15,3 C 13,2 C 97 % 6 lf 1026,0 hPa 0,0 l/m 0,10 h 0,00 h 184 W/m 10,8 km/h (2 Bft) 96,16 %
08.09.2015 11:00 14,3 C 16,7 C 13,6 C 96 % 0 lf 1026,1 hPa 0,0 l/m 0,00 h 0,00 h 191 W/m 10,3 km/h (2 Bft) 94,58 %
08.09.2015 12:00 15,3 C 18,0 C 14,6 C 89 % 0 lf 1025,8 hPa 0,0 l/m 0,00 h 0,00 h 263 W/m 12,8 km/h (3 Bft) 97,00 %
08.09.2015 13:00 16,1 C 18,9 C 15,2 C 84 % 0 lf 1025,5 hPa 0,0 l/m 0,00 h 0,00 h 253 W/m 9,6 km/h (2 Bft) 96,30 %
08.09.2015 14:00 17,0 C 20,1 C 16,6 C 80 % 0 lf 1025,4 hPa 0,2 l/m 0,00 h 0,07 h 291 W/m 7,7 km/h (2 Bft) 96,01 %
08.09.2015 15:00 17,5 C 19,6 C 16,9 C 76 % 0 lf 1025,1 hPa 0,0 l/m 0,07 h 0,00 h 227 W/m 11,7 km/h (2 Bft) 96,58 %
08.09.2015 16:00 16,8 C 18,5 C 16,3 C 78 % 0 lf 1024,6 hPa 0,0 l/m 0,00 h 0,00 h 169 W/m 11,7 km/h (2 Bft) 96,15 %
08.09.2015 17:00 17,0 C 18,7 C 16,3 C 77 % 0 lf 1024,2 hPa 0,0 l/m 0,00 h 0,00 h 157 W/m 11,5 km/h (2 Bft) 95,87 %
08.09.2015 18:00 16,6 C 17,1 C 15,2 C 80 % 0 lf 1023,9 hPa 0,0 l/m 0,00 h 0,00 h 82 W/m 11,3 km/h (2 Bft) 96,75 %
08.09.2015 19:00 16,0 C 15,3 C 13,7 C 83 % 0 lf 1023,6 hPa 0,0 l/m 0,13 h 0,00 h 34 W/m 2,8 km/h (1 Bft) 95,73 %
08.09.2015 20:00 15,0 C 13,6 C 12,3 C 87 % 0 lf 1023,7 hPa 0,0 l/m 0,00 h 0,00 h 6 W/m 0,2 km/h (0 Bft) 96,26 %
08.09.2015 21:00 14,2 C 12,9 C 12,0 C 90 % 1 lf 1023,8 hPa 0,0 l/m 0,00 h 0,00 h 0 W/m 0,0 km/h (0 Bft) 98,41 %
08.09.2015 22:00 13,5 C 12,2 C 11,6 C 91 % 1 lf 1023,9 hPa 0,0 l/m 0,00 h 0,00 h 0 W/m 0,5 km/h (0 Bft) 95,04 %
08.09.2015 23:00 12,8 C 11,3 C 10,5 C 92 % 7 lf 1023,9 hPa 0,0 l/m 0,00 h 0,00 h 0 W/m 2,2 km/h (1 Bft) 97,00 %
09.09.2015 00:00 11,9 C 10,6 C 9,7 C 93 % 15 lf 1024,0 hPa 0,0 l/m 0,00 h 0,00 h 0 W/m 0,7 km/h (0 Bft) 98,43 %
09.09.2015 01:00 11,3 C 10,8 C 9,9 C 93 % 15 lf 1024,0 hPa 0,0 l/m 0,00 h 0,00 h 0 W/m 1,2 km/h (1 Bft) 96,58 %
09.09.2015 02:00 11,4 C 11,1 C 10,5 C 94 % 15 lf 1023,7 hPa 0,0 l/m 0,00 h 0,00 h 0 W/m 1,1 km/h (0 Bft) 96,36 %
09.09.2015 03:00 11,3 C 10,0 C 9,4 C 94 % 15 lf 1023,4 hPa 0,0 l/m 0,00 h 0,00 h 0 W/m 2,5 km/h (1 Bft) 97,32 %
09.09.2015 04:00 10,4 C 8,8 C 8,4 C 94 % 15 lf 1023,2 hPa 0,0 l/m 0,00 h 0,00 h 0 W/m 1,4 km/h (1 Bft) 96,66 %
09.09.2015 05:00 9,7 C 8,3 C 7,8 C 95 % 15 lf 1023,0 hPa 0,0 l/m 0,00 h 0,00 h 0 W/m 4,1 km/h (1 Bft) 98,54 %
09.09.2015 06:00 9,1 C 7,5 C 7,2 C 95 % 15 lf 1022,9 hPa 0,0 l/m 0,00 h 0,00 h 4 W/m 2,1 km/h (1 Bft) 96,93 %
09.09.2015 07:00 8,5 C 7,9 C 7,3 C 95 % 15 lf 1023,0 hPa 0,0 l/m 0,57 h 0,00 h 40 W/m 2,7 km/h (1 Bft) 94,59 %
09.09.2015 08:00 9,0 C 10,0 C 9,0 C 96 % 15 lf 1023,1 hPa 0,0 l/m 1,00 h 0,00 h 170 W/m 4,1 km/h (1 Bft) 98,64 %
09.09.2015 09:00 11,8 C 21,5 C 13,4 C 98 % 15 lf 1023,2 hPa 0,0 l/m 0,98 h 0,00 h 341 W/m 6,0 km/h (2 Bft) 97,39 %
09.09.2015 10:00 14,9 C 26,8 C 19,4 C 96 % 0 lf 1023,1 hPa 0,0 l/m 0,97 h 0,00 h 475 W/m 11,8 km/h (2 Bft) 94,80 %
09.09.2015 11:00 17,4 C 25,8 C 19,9 C 79 % 0 lf 1023,1 hPa 0,0 l/m 0,83 h 0,00 h 581 W/m 16,9 km/h (3 Bft) 97,86 %
09.09.2015 12:00 19,7 C 26,6 C 21,8 C 69 % 0 lf 1023,0 hPa 0,0 l/m 0,73 h 0,00 h 641 W/m 17,5 km/h (3 Bft) 97,55 %
09.09.2015 13:00 20,6 C 27,5 C 19,9 C 65 % 0 lf 1022,9 hPa 0,0 l/m 0,93 h 0,00 h 720 W/m 20,2 km/h (4 Bft) 95,59 %
09.09.2015 14:00 20,9 C 28,2 C 19,0 C 64 % 0 lf 1022,6 hPa 0,0 l/m 0,93 h 0,00 h 653 W/m 18,5 km/h (3 Bft) 97,93 %
09.09.2015 15:00 20,4 C 26,8 C 18,6 C 68 % 0 lf 1022,3 hPa 0,0 l/m 0,97 h 0,00 h 597 W/m 22,3 km/h (4 Bft) 96,94 %
09.09.2015 16:00 20,5 C 25,4 C 18,7 C 65 % 0 lf 1021,9 hPa 0,0 l/m 0,77 h 0,00 h 423 W/m 21,6 km/h (4 Bft) 95,22 %
09.09.2015 17:00 20,0 C 23,5 C 18,0 C 65 % 0 lf 1021,6 hPa 0,0 l/m 0,80 h 0,00 h 281 W/m 19,6 km/h (3 Bft) 97,09 %
09.09.2015 18:00 19,5 C 20,1 C 17,1 C 64 % 0 lf 1021,3 hPa 0,0 l/m 0,98 h 0,00 h 155 W/m 21,3 km/h (4 Bft) 97,79 %
09.09.2015 19:00 18,1 C 17,4 C 15,6 C 67 % 0 lf 1021,4 hPa 0,0 l/m 0,00 h 0,00 h 27 W/m 18,4 km/h (3 Bft) 95,94 %
09.09.2015 20:00 16,4 C 15,1 C 13,6 C 70 % 0 lf 1021,7 hPa 0,0 l/m 0,00 h 0,00 h 6 W/m 14,4 km/h (3 Bft) 95,23 %
09.09.2015 21:00 14,9 C 14,0 C 12,4 C 73 % 0 lf 1022,2 hPa 0,0 l/m 0,00 h 0,00 h 0 W/m 11,4 km/h (2 Bft) 99,07 %
09.09.2015 22:00 13,9 C 13,2 C 11,7 C 76 % 0 lf 1022,5 hPa 0,0 l/m 0,00 h 0,00 h 0 W/m 8,9 km/h (2 Bft) 97,79 %
09.09.2015 23:00 12,9 C 11,6 C 9,7 C 78 % 0 lf 1022,6 hPa 0,0 l/m 0,00 h 0,00 h 0 W/m 5,5 km/h (1 Bft) 94,93 %
10.09.2015 00:00 11,6 C 10,6 C 8,9 C 82 % 0 lf 1022,7 hPa 0,0 l/m 0,00 h 0,00 h 0 W/m 6,7 km/h (2 Bft) 97,21 %
10.09.2015 01:00 10,9 C 10,5 C 9,1 C 86 % 0 lf 1022,8 hPa 0,0 l/m 0,00 h 0,00 h 0 W/m 7,6 km/h (2 Bft) 95,93 %
10.09.2015 02:00 10,4 C 8,9 C 8,0 C 86 % 0 lf 1022,8 hPa 0,0 l/m 0,00 h 0,00 h 0 W/m 2,5 km/h (1 Bft) 97,22 %
10.09.2015 03:00 9,4 C 8,2 C 7,2 C 87 % 1 lf 1022,7 hPa 0,0 l/m 0,00 h 0,00 h 0 W/m 4,1 km/h (1 Bft) 96,29 %
10.09.2015 04:00 8,6 C 7,1 C 6,8 C 89 % 2 lf 1022,7 hPa 0,0 l/m 0,00 h 0,00 h 0 W/m 0,4 km/h (0 Bft) 96,80 %
10.09.2015 05:00 7,9 C 6,4 C 6,1 C 89 % 6 lf 1022,6 hPa 0,0 l/m 0,00 h 0,00 h 0 W/m 0,0 km/h (0 Bft) 97,36 %
10.09.2015 06:00 7,3 C 5,8 C 5,6 C 90 % 14 lf 1022,6 hPa 0,0 l/m 0,00 h 0,00 h 5 W/m 0,0 km/h (0 Bft) 96,30 %
10.09.2015 07:00 6,9 C 6,3 C 5,9 C 91 % 15 lf 1022,7 hPa 0,0 l/m 0,67 h 0,00 h 42 W/m 3,3 km/h (1 Bft) 99,07 %
10.09.2015 08:00 8,3 C 9,8 C 8,6 C 95 % 11 lf 1022,8 hPa 0,0 l/m 1,00 h 0,00 h 192 W/m 10,1 km/h (2 Bft) 95,67 %
10.09.2015 09:00 11,8 C 21,9 C 13,4 C 94 % 0 lf 1022,9 hPa 0,0 l/m 1,00 h 0,00 h 357 W/m 13,5 km/h (3 Bft) 96,44 %
10.09.2015 10:00 15,6 C 26,2 C 19,4 C 78 % 0 lf 1022,9 hPa 0,0 l/m 1,00 h 0,00 h 501 W/m 15,3 km/h (3 Bft) 98,93 %
10.09.2015 11:00 18,3 C 26,9 C 22,6 C 69 % 0 lf 1022,6 hPa 0,0 l/m 1,00 h 0,00 h 613 W/m 14,6 km/h (3 Bft) 94,59 %
10.09.2015 12:00 20,0 C 28,7 C 21,6 C 63 % 0 lf 1022,0 hPa 0,0 l/m 0,95 h 0,00 h 672 W/m 17,3 km/h (3 Bft) 96,44 %
10.09.2015 13:00 19,8 C 22,7 C 18,1 C 62 % 0 lf 1021,8 hPa 0,0 l/m 0,13 h 0,00 h 254 W/m 17,1 km/h (3 Bft) 97,15 %
10.09.2015 14:00 20,1 C 25,5 C 19,3 C 61 % 0 lf 1021,4 hPa 0,0 l/m 0,67 h 0,00 h 599 W/m 18,3 km/h (3 Bft) 95,94 %
10.09.2015 15:00 21,4 C 24,9 C 19,5 C 58 % 0 lf 1020,8 hPa 0,0 l/m 0,67 h 0,00 h 510 W/m 21,0 km/h (4 Bft) 94,95 %
10.09.2015 16:00 20,8 C 24,3 C 18,7 C 60 % 0 lf 1020,4 hPa 0,0 l/m 0,50 h 0,00 h 369 W/m 22,4 km/h (4 Bft) 97,36 %
10.09.2015 17:00 20,1 C 23,3 C 18,0 C 61 % 0 lf 1020,0 hPa 0,0 l/m 0,67 h 0,00 h 276 W/m 22,0 km/h (4 Bft) 96,58 %
10.09.2015 18:00 19,9 C 20,2 C 17,4 C 59 % 0 lf 1019,9 hPa 0,0 l/m 0,90 h 0,00 h 154 W/m 21,8 km/h (4 Bft) 96,38 %
10.09.2015 19:00 18,5 C 17,5 C 15,7 C 63 % 0 lf 1019,9 hPa 0,0 l/m 0,07 h 0,00 h 24 W/m 16,6 km/h (3 Bft) 96,21 %
10.09.2015 20:00 16,5 C 15,6 C 13,9 C 68 % 0 lf 1019,9 hPa 0,0 l/m 0,00 h 0,00 h 4 W/m 13,9 km/h (3 Bft) 98,13 %
10.09.2015 21:00 15,3 C 14,2 C 12,8 C 73 % 0 lf 1020,0 hPa 0,0 l/m 0,00 h 0,00 h 0 W/m 12,6 km/h (3 Bft) 94,79 %
10.09.2015 22:00 14,3 C 13,6 C 12,1 C 78 % 0 lf 1020,1 hPa 0,0 l/m 0,00 h 0,00 h 0 W/m 10,4 km/h (2 Bft) 95,39 %
10.09.2015 23:00 13,5 C 11,8 C 10,7 C 80 % 0 lf 1020,1 hPa 0,0 l/m 0,00 h 0,00 h 0 W/m 3,9 km/h (1 Bft) 98,36 %
11.09.2015 00:00 12,1 C 10,7 C 9,4 C 83 % 0 lf 1020,0 hPa 0,0 l/m 0,00 h 0,00 h 0 W/m 5,4 km/h (1 Bft) 96,10 %
11.09.2015 01:00 11,1 C 10,3 C 8,9 C 87 % 1 lf 1019,6 hPa 0,0 l/m 0,00 h 0,00 h 0 W/m 6,4 km/h (2 Bft) 94,48 %
11.09.2015 02:00 10,5 C 10,0 C 8,5 C 90 % 1 lf 1019,2 hPa 0,0 l/m 0,00 h 0,00 h 0 W/m 5,8 km/h (2 Bft) 97,07 %
11.09.2015 03:00 10,1 C 9,5 C 8,1 C 91 % 2 lf 1019,0 hPa 0,0 l/m 0,00 h 0,00 h 0 W/m 6,1 km/h (2 Bft) 96,69 %
11.09.2015 04:00 9,6 C 9,2 C 7,8 C 92 % 6 lf 1018,7 hPa 0,0 l/m 0,00 h 0,00 h 0 W/m 7,1 km/h (2 Bft) 96,41 %
11.09.2015 05:00 9,2 C 8,8 C 7,5 C 93 % 14 lf 1018,4 hPa 0,0 l/m 0,00 h 0,00 h 0 W/m 7,2 km/h (2 Bft) 94,45 %
11.09.2015 06:00 9,1 C 8,8 C 7,7 C 94 % 15 lf 1018,0 hPa 0,0 l/m 0,00 h 0,00 h 0 W/m 8,1 km/h (2 Bft) 97,52 %
11.09.2015 07:00 8,6 C 8,0 C 7,0 C 94 % 15 lf 1018,1 hPa 0,0 l/m 0,37 h 0,00 h 35 W/m 3,2 km/h (1 Bft) 94,89 %
11.09.2015 08:00 9,0 C 10,6 C 8,9 C 95 % 13 lf 1018,2 hPa 0,0 l/m 1,00 h 0,00 h 176 W/m 7,9 km/h (2 Bft) 96,87 %
11.09.2015 09:00 11,6 C 20,8 C 13,5 C 95 % 0 lf 1018,3 hPa 0,0 l/m 1,00 h 0,00 h 339 W/m 10,6 km/h (2 Bft) 96,30 %
11.09.2015 10:00 15,5 C 23,0 C 19,4 C 77 % 0 lf 1018,1 hPa 0,0 l/m 1,00 h 0,00 h 480 W/m 13,1 km/h (3 Bft) 96,22 %
11.09.2015 11:00 17,7 C 24,5 C 22,2 C 68 % 0 lf 1017,7 hPa 0,0 l/m 1,00 h 0,00 h 596 W/m 15,4 km/h (3 Bft) 95,37 %
11.09.2015 12:00 19,4 C 25,9 C 21,3 C 63 % 0 lf 1017,0 hPa 0,0 l/m 0,97 h 0,00 h 670 W/m 14,2 km/h (3 Bft) 96,49 %
11.09.2015 13:00 20,7 C 28,2 C 19,0 C 58 % 0 lf 1016,5 hPa 0,0 l/m 1,00 h 0,00 h 692 W/m 15,5 km/h (3 Bft) 97,01 %
11.09.2015 14:00 21,6 C 27,7 C 19,3 C 55 % 0 lf 1016,2 hPa 0,0 l/m 1,00 h 0,00 h 661 W/m 14,1 km/h (3 Bft) 95,87 %
11.09.2015 15:00 21,9 C 26,9 C 19,3 C 52 % 0 lf 1015,6 hPa 0,0 l/m 0,93 h 0,00 h 555 W/m 15,1 km/h (3 Bft) 95,09 %
11.09.2015 16:00 21,5 C 25,1 C 19,0 C 50 % 0 lf 1015,4 hPa 0,0 l/m 0,73 h 0,00 h 371 W/m 12,3 km/h (3 Bft) 97,23 %
11.09.2015 17:00 21,4 C 24,3 C 19,0 C 50 % 0 lf 1015,2 hPa 0,0 l/m 0,73 h 0,00 h 277 W/m 10,7 km/h (2 Bft) 97,36 %
11.09.2015 18:00 21,1 C 21,4 C 17,9 C 52 % 0 lf 1015,1 hPa 0,0 l/m 0,93 h 0,00 h 148 W/m 9,3 km/h (2 Bft) 93,27 %
11.09.2015 19:00 19,8 C 18,0 C 15,5 C 58 % 0 lf 1014,9 hPa 0,0 l/m 0,13 h 0,00 h 28 W/m 4,3 km/h (1 Bft) 98,50 %
11.09.2015 20:00 17,3 C 15,0 C 13,1 C 67 % 0 lf 1015,2 hPa 0,0 l/m 0,00 h 0,00 h 0 W/m 4,3 km/h (1 Bft) 96,08 %
11.09.2015 21:00 15,5 C 14,7 C 12,2 C 73 % 0 lf 1015,2 hPa 0,0 l/m 0,00 h 0,00 h 0 W/m 7,7 km/h (2 Bft) 96,52 %
11.09.2015 22:00 14,4 C 12,5 C 11,1 C 78 % 0 lf 1015,1 hPa 0,0 l/m 0,00 h 0,00 h 0 W/m 1,7 km/h (1 Bft) 95,87 %
11.09.2015 23:00 12,8 C 10,9 C 10,0 C 83 % 1 lf 1014,9 hPa 0,0 l/m 0,00 h 0,00 h 0 W/m 0,8 km/h (0 Bft) 96,23 %
12.09.2015 00:00 11,5 C 10,7 C 9,4 C 86 % 1 lf 1014,8 hPa 0,0 l/m 0,00 h 0,00 h 0 W/m 4,7 km/h (1 Bft) 95,98 %
12.09.2015 01:00 11,1 C 11,5 C 9,6 C 90 % 0 lf 1014,7 hPa 0,0 l/m 0,00 h 0,00 h 0 W/m 8,0 km/h (2 Bft) 98,93 %
12.09.2015 02:00 11,6 C 12,0 C 10,7 C 89 % 0 lf 1014,4 hPa 0,0 l/m 0,00 h 0,00 h 0 W/m 10,8 km/h (2 Bft) 92,74 %
12.09.2015 03:00 12,2 C 12,7 C 11,1 C 87 % 0 lf 1014,0 hPa 0,0 l/m 0,00 h 0,00 h 0 W/m 12,0 km/h (2 Bft) 97,37 %
12.09.2015 04:00 12,4 C 12,8 C 11,2 C 87 % 0 lf 1013,8 hPa 0,0 l/m 0,00 h 0,00 h 0 W/m 12,4 km/h (3 Bft) 97,12 %
12.09.2015 05:00 12,4 C 12,3 C 11,1 C 88 % 0 lf 1013,3 hPa 0,0 l/m 0,00 h 0,00 h 0 W/m 13,4 km/h (3 Bft) 95,51 %
12.09.2015 06:00 12,4 C 12,8 C 11,3 C 88 % 0 lf 1013,1 hPa 0,0 l/m 0,00 h 0,00 h 0 W/m 13,4 km/h (3 Bft) 95,12 %
12.09.2015 07:00 12,6 C 13,0 C 11,8 C 88 % 0 lf 1013,2 hPa 0,0 l/m 0,47 h 0,00 h 38 W/m 15,6 km/h (3 Bft) 97,50 %
12.09.2015 08:00 13,3 C 14,2 C 12,7 C 86 % 0 lf 1012,9 hPa 0,0 l/m 0,00 h 0,00 h 74 W/m 16,7 km/h (3 Bft) 95,28 %
12.09.2015 09:00 14,2 C 15,1 C 13,5 C 83 % 0 lf 1012,6 hPa 0,0 l/m 0,00 h 0,00 h 83 W/m 19,1 km/h (3 Bft) 96,87 %
12.09.2015 10:00 14,7 C 15,4 C 13,9 C 82 % 0 lf 1012,4 hPa 0,0 l/m 0,00 h 0,07 h 109 W/m 17,4 km/h (3 Bft) 95,62 %
12.09.2015 11:00 15,6 C 16,9 C 15,4 C 79 % 0 lf 1012,3 hPa 0,0 l/m 0,20 h 0,17 h 173 W/m 19,0 km/h (3 Bft) 95,88 %
12.09.2015 12:00 16,0 C 18,0 C 15,9 C 81 % 0 lf 1011,8 hPa 0,0 l/m 0,33 h 0,33 h 301 W/m 23,7 km/h (4 Bft) 98,10 %
12.09.2015 13:00 18,9 C 23,9 C 19,1 C 77 % 0 lf 1011,4 hPa 0,0 l/m 0,90 h 0,00 h 612 W/m 24,5 km/h (4 Bft) 95,81 %
12.09.2015 14:00 20,3 C 20,8 C 19,3 C 74 % 0 lf 1011,3 hPa 0,0 l/m 0,10 h 0,13 h 201 W/m 18,6 km/h (3 Bft) 95,30 %
12.09.2015 15:00 19,7 C 17,5 C 16,1 C 82 % 1 lf 1011,5 hPa 0,4 l/m 0,00 h 0,37 h 102 W/m 9,9 km/h (2 Bft) 99,07 %
12.09.2015 16:00 18,9 C 17,2 C 15,8 C 87 % 13 lf 1011,4 hPa 0,2 l/m 0,00 h 0,73 h 43 W/m 8,1 km/h (2 Bft) 94,79 %
12.09.2015 17:00 18,3 C 17,2 C 16,1 C 91 % 4 lf 1011,1 hPa 0,0 l/m 0,00 h 0,17 h 49 W/m 4,6 km/h (1 Bft) 95,09 %
12.09.2015 18:00 18,0 C 17,0 C 15,9 C 93 % 15 lf 1011,1 hPa 1,8 l/m 0,00 h 0,97 h 19 W/m 3,9 km/h (1 Bft) 97,67 %
12.09.2015 19:00 17,6 C 16,7 C 15,5 C 94 % 15 lf 1010,9 hPa 1,0 l/m 0,00 h 1,00 h 7 W/m 5,7 km/h (1 Bft) 96,51 %
12.09.2015 20:00 17,1 C 16,7 C 15,0 C 95 % 15 lf 1010,9 hPa 0,0 l/m 0,00 h 0,33 h 0 W/m 8,7 km/h (2 Bft) 94,47 %
12.09.2015 21:00 16,8 C 16,1 C 15,0 C 96 % 15 lf 1011,2 hPa 0,0 l/m 0,00 h 0,00 h 0 W/m 9,7 km/h (2 Bft) 97,51 %
12.09.2015 22:00 16,3 C 15,8 C 14,6 C 97 % 15 lf 1011,2 hPa 0,0 l/m 0,00 h 0,00 h 0 W/m 11,1 km/h (2 Bft) 95,81 %
12.09.2015 23:00 15,9 C 15,6 C 14,4 C 98 % 15 lf 1011,3 hPa 0,0 l/m 0,00 h 0,17 h 0 W/m 12,8 km/h (3 Bft) 96,18 %
13.09.2015 00:00 15,8 C 15,6 C 14,3 C 98 % 15 lf 1011,3 hPa 0,0 l/m 0,00 h 0,00 h 0 W/m 10,1 km/h (2 Bft) 96,52 %
13.09.2015 01:00 15,7 C 15,6 C 14,3 C 98 % 15 lf 1011,2 hPa 0,2 l/m 0,00 h 0,00 h 0 W/m 8,6 km/h (2 Bft) 95,66 %
13.09.2015 02:00 15,9 C 15,6 C 14,4 C 98 % 15 lf 1011,0 hPa 0,0 l/m 0,00 h 0,00 h 0 W/m 6,2 km/h (2 Bft) 97,23 %
13.09.2015 03:00 15,8 C 15,6 C 14,4 C 98 % 15 lf 1010,7 hPa 0,0 l/m 0,00 h 0,40 h 0 W/m 4,7 km/h (1 Bft) 96,44 %
13.09.2015 04:00 15,8 C 15,6 C 14,4 C 98 % 15 lf 1010,4 hPa 0,4 l/m 0,00 h 0,30 h 0 W/m 2,4 km/h (1 Bft) 94,96 %
13.09.2015 05:00 14,9 C 14,3 C 13,3 C 98 % 15 lf 1010,6 hPa 0,0 l/m 0,00 h 0,07 h 0 W/m 8,5 km/h (2 Bft) 96,37 %
13.09.2015 06:00 14,0 C 13,4 C 12,5 C 98 % 15 lf 1010,6 hPa 0,0 l/m 0,00 h 0,00 h 0 W/m 3,9 km/h (1 Bft) 97,49 %
13.09.2015 07:00 13,6 C 13,1 C 12,1 C 98 % 15 lf 1010,8 hPa 0,0 l/m 0,00 h 0,00 h 18 W/m 3,5 km/h (1 Bft) 94,38 %
13.09.2015 08:00 13,7 C 14,2 C 12,7 C 98 % 15 lf 1010,7 hPa 0,0 l/m 0,07 h 0,00 h 73 W/m 2,9 km/h (1 Bft) 96,99 %
13.09.2015 09:00 14,4 C 15,5 C 13,7 C 99 % 15 lf 1010,4 hPa 0,0 l/m 0,00 h 0,00 h 109 W/m 4,2 km/h (1 Bft) 96,45 %
13.09.2015 10:00 15,8 C 20,3 C 17,0 C 99 % 2 lf 1010,0 hPa 0,0 l/m 1,00 h 0,00 h 312 W/m 7,2 km/h (2 Bft) 97,34 %
13.09.2015 11:00 17,5 C 21,8 C 18,5 C 97 % 0 lf 1009,4 hPa 0,0 l/m 0,90 h 0,00 h 330 W/m 9,2 km/h (2 Bft) 94,84 %
13.09.2015 12:00 19,1 C 22,1 C 19,5 C 89 % 0 lf 1008,5 hPa 0,0 l/m 0,70 h 0,00 h 351 W/m 12,8 km/h (3 Bft) 96,73 %
13.09.2015 13:00 20,0 C 21,1 C 19,3 C 85 % 0 lf 1007,6 hPa 0,0 l/m 0,00 h 0,00 h 194 W/m 14,9 km/h (3 Bft) 96,32 %
13.09.2015 14:00 19,6 C 19,9 C 18,3 C 86 % 0 lf 1007,0 hPa 0,0 l/m 0,00 h 0,00 h 109 W/m 20,6 km/h (4 Bft) 96,64 %
13.09.2015 15:00 19,5 C 20,3 C 18,6 C 86 % 0 lf 1006,1 hPa 0,0 l/m 0,00 h 0,00 h 167 W/m 21,6 km/h (4 Bft) 94,65 %
13.09.2015 16:00 19,5 C 19,9 C 18,4 C 86 % 0 lf 1005,3 hPa 0,0 l/m 0,03 h 0,00 h 167 W/m 26,9 km/h (4 Bft) 98,48 %
13.09.2015 17:00 19,5 C 21,3 C 18,8 C 88 % 0 lf 1004,4 hPa 0,0 l/m 0,90 h 0,00 h 276 W/m 28,3 km/h (4 Bft) 95,70 %
13.09.2015 18:00 19,2 C 19,5 C 17,4 C 88 % 0 lf 1003,3 hPa 0,0 l/m 0,67 h 0,00 h 119 W/m 25,6 km/h (4 Bft) 95,95 %
13.09.2015 19:00 18,4 C 18,1 C 16,8 C 90 % 0 lf 1003,1 hPa 0,0 l/m 0,00 h 0,00 h 24 W/m 22,0 km/h (4 Bft) 97,83 %
13.09.2015 20:00 17,8 C 17,6 C 16,1 C 92 % 0 lf 1002,7 hPa 0,0 l/m 0,00 h 0,00 h 0 W/m 21,6 km/h (4 Bft) 95,15 %
13.09.2015 21:00 17,3 C 17,1 C 15,8 C 92 % 0 lf 1002,4 hPa 0,0 l/m 0,00 h 0,00 h 0 W/m 20,0 km/h (4 Bft) 95,34 %
13.09.2015 22:00 17,2 C 17,2 C 15,8 C 93 % 0 lf 1002,2 hPa 0,0 l/m 0,00 h 0,00 h 0 W/m 21,3 km/h (4 Bft) 97,65 %
13.09.2015 23:00 17,2 C 17,2 C 15,6 C 94 % 0 lf 1002,1 hPa 0,0 l/m 0,00 h 0,10 h 0 W/m 16,9 km/h (3 Bft) 93,81 %
Min-Datum _ 10.09.15 10.09.15 10.09.15 11.09.15 07.09.15 13.09.15 - - - - 07.09.15 07.09.15
_ Min-Zeit 07:24 06:26 06:06 15:54 00:05 22:38 - - - - 22:26 00:02
Minimum _ 6,8 C 5,6 C 5,6 C 49 % 0 lf 1002,1 hPa - - - - 0,0 km/h (0 Bft) 11,11 %
Max-Datum _ 11.09.15 10.09.15 09.09.15 13.09.15 07.09.15 08.09.15 12.09.15 07.09.15 07.09.15 07.09.15 13.09.15 07.09.15
_ Max-Zeit 15:52 12:32 12:10 05:06 02:10 01:00 18:00 10:18 02:06 12:08 16:34 02:08
Maximum _ 22,0 C 31,7 C 25,6 C 99 % 15 lf 1026,9 hPa 1,8 l/m 0,03 h 0,03 h 923 W/m 43,9 km/h
O-SO (6 Bft)
100,00 %
Durchschnitt _ 15,0 C 16,1 C 13,7 C 85 % 5 lf 1018,8 hPa #6,2 l/m #38:51 h #7:53 h 235 W/m 10,9 km/h (2 Bft) 96,36 %
© 2015 W. Hausmann